Ana Sayfa
METAR-TAF:

METAR-TAF

Havaalanları :

Raleigh-Durham International Airport

Raleigh / Durham, Kuzey Carolina, Amerika Birleşik Devletleri

Enlem: 35-52-14N, Boylam: 078-47-11W, yükseklik: 133 m

Güncel hava durumu gözlemi

Rapor saat 14:51 UTC de 57 dakika önce yapıldı.
Rüzgar güneybatıdan 5 kt
Sıcaklık 2°C
Nem 75%
Basınç 1032 hPa
Görüş mesafesi: 16.1 km
25000 ft yükseklikte az bulutlu

METAR: KRDU 221451Z 23005KT 10SM FEW250 02/M02 A3048 RMK AO2 SLP324 T00221017 50010

Saat: 10:48 (15:48 UTC)

Tahmin

Rapor saat 11:20 UTC de 4 saat ve 28 dakika önce yapıldı.
Ayın 22'si saat 12 UTC'den ayın 23'si saat 12 UTC'ye kadar geçerli Tahmin
Rüzgar değişken yönden 4 kt
Görüş mesafesi: 10 km
Açık gökyüzü
Ayın 22'si saat 2000 UTC'den
Rüzgar batı/güneybatıdan 5 kt
Görüş mesafesi: 10 km
25000 ft yükseklikte az bulutlu

TAF: KRDU 221120Z 2212/2312 VRB04KT P6SM SKC FM222000 25005KT P6SM FEW250

4.000'den fazla havaalanı için hava durumu gözlemleri ve tahminleri (METAR ve TAF raporları).

Kullanılabilir istasyonlar harita üzerinde sarı ve kırmızı noktalarla gösterilir.

İstasyonun adını görmek için fareyi noktanın üzerinde gezdirin.

Sonrasında hava gözlem ve tahminlerini görmek için tıklayın.

Haritayı değiştirmek için: yaklaştırmak için siyah artı işaretli yeşil düğmeye ve uzaklaştırmak için de eksi işaretli düğmeye hızla tıklayın; bitişik haritalar için yeşil okları kullanın.


METAR-TAF: